< < Back
Terminal Aerodrome Forecast


Current Version              Previous Versions:   1  2  3  4  5  6  7  8  9  

Terminal Aerodrome Forecast

259
FTUS42 KCAE 270740 AAA
TAFCAE
TAF AMD
KCAE 270740Z 2708/2806 VRB03KT P6SM BKN150
     FM270900 VRB03KT 5SM BR OVC007
     FM271500 18005KT P6SM BKN025
     FM271800 22007KT P6SM VCTS BKN035CB=

Latest METAR

782
SAUS80 KWBC 271100 RRA
MTRCAE
METAR KCAE 271056Z COR 00000KT 10SM SCT019 SCT026 BKN150 21/18 A3023 RMK
AO2 SLP235 T02110183


USA.gov is the U.S. government's official web portal to all federal, state and local government web resources and services.